createdAt,value
2019-05-28T00:00:43.954Z,12.00
2019-05-28T00:01:43.945Z,12.00
2019-05-28T00:02:43.963Z,12.00
2019-05-28T00:03:43.939Z,12.00
2019-05-28T00:04:43.912Z,12.00
2019-05-28T00:05:54.089Z,12.00
2019-05-28T00:06:43.900Z,8.00
2019-05-28T00:07:43.914Z,8.00
2019-05-28T00:08:43.870Z,8.00
2019-05-28T00:09:43.860Z,8.00
2019-05-28T00:10:43.850Z,8.00
2019-05-28T00:11:43.887Z,8.00
2019-05-28T00:12:43.828Z,8.00
2019-05-28T00:13:43.821Z,8.00
2019-05-28T00:14:43.838Z,8.00
2019-05-28T00:15:43.831Z,8.00
2019-05-28T00:16:43.778Z,8.00
2019-05-28T00:17:43.810Z,8.00
2019-05-28T00:18:43.779Z,8.00
2019-05-28T00:19:43.784Z,8.00
2019-05-28T00:20:43.767Z,8.00
2019-05-28T00:21:43.760Z,8.00
2019-05-28T00:22:43.759Z,8.00
2019-05-28T00:23:43.707Z,8.00
2019-05-28T00:24:43.757Z,12.00
2019-05-28T00:25:43.707Z,8.00
2019-05-28T00:26:43.685Z,8.00
2019-05-28T00:27:43.705Z,12.00
2019-05-28T00:28:43.668Z,8.00
2019-05-28T00:29:43.646Z,8.00
2019-05-28T00:30:43.685Z,12.00
2019-05-28T00:31:43.666Z,12.00
2019-05-28T00:32:43.625Z,8.00
2019-05-28T00:33:43.621Z,8.00
2019-05-28T00:34:43.839Z,12.00
2019-05-28T00:35:43.603Z,12.00
2019-05-28T00:36:53.793Z,12.00
2019-05-28T00:37:43.569Z,12.00
2019-05-28T00:38:43.553Z,12.00
2019-05-28T00:39:43.553Z,12.00
2019-05-28T00:40:43.542Z,12.00
2019-05-28T00:41:43.540Z,16.00
2019-05-28T00:42:43.527Z,16.00
2019-05-28T00:43:43.503Z,12.00
2019-05-28T00:44:43.503Z,12.00
2019-05-28T00:45:43.495Z,16.00
2019-05-28T00:46:43.527Z,12.00
2019-05-28T00:47:43.480Z,12.00
2019-05-28T00:48:43.450Z,16.00
2019-05-28T00:49:43.457Z,16.00
2019-05-28T00:50:43.437Z,20.00
2019-05-28T00:51:43.427Z,16.00
2019-05-28T00:52:43.440Z,16.00
2019-05-28T00:53:43.426Z,20.00
2019-05-28T00:54:43.396Z,20.00
2019-05-28T00:55:43.375Z,20.00
2019-05-28T00:56:43.404Z,24.00
2019-05-28T00:57:43.381Z,24.00
2019-05-28T00:58:43.370Z,24.00
2019-05-28T00:59:43.363Z,24.00
2019-05-28T01:00:43.328Z,24.00
2019-05-28T01:01:43.338Z,24.00
2019-05-28T01:02:43.358Z,24.00
2019-05-28T01:03:43.286Z,28.00
2019-05-28T01:04:43.292Z,24.00
2019-05-28T01:05:43.277Z,28.00
2019-05-28T01:06:43.292Z,24.00
2019-05-28T01:07:53.520Z,24.00
2019-05-28T01:08:43.233Z,28.00
2019-05-28T01:09:43.235Z,24.00
2019-05-28T01:10:43.214Z,24.00
2019-05-28T01:11:43.224Z,28.00
2019-05-28T01:12:43.243Z,24.00
2019-05-28T01:13:43.184Z,28.00
2019-05-28T01:14:43.169Z,32.00
2019-05-28T01:15:43.175Z,28.00
2019-05-28T01:16:43.156Z,32.00
2019-05-28T01:17:43.184Z,32.00
2019-05-28T01:18:43.172Z,32.00
2019-05-28T01:19:43.136Z,32.00
2019-05-28T01:20:43.110Z,36.00
2019-05-28T01:21:43.103Z,32.00
2019-05-28T01:22:43.106Z,36.00
2019-05-28T01:23:43.108Z,36.00
2019-05-28T01:24:43.121Z,36.00
2019-05-28T01:25:43.066Z,36.00
2019-05-28T01:26:43.057Z,40.00
2019-05-28T01:27:43.059Z,40.00
2019-05-28T01:28:43.017Z,40.00
2019-05-28T01:29:43.017Z,40.00
2019-05-28T01:30:54.911Z,40.00
2019-05-28T01:31:44.038Z,44.00
2019-05-28T01:32:43.018Z,44.00
2019-05-28T01:33:42.967Z,44.00
2019-05-28T01:34:43.000Z,44.00
2019-05-28T01:35:42.952Z,48.00
2019-05-28T01:36:42.959Z,48.00
2019-05-28T01:37:42.939Z,48.00
2019-05-28T01:38:53.855Z,52.00
2019-05-28T01:39:42.915Z,52.00
2019-05-28T01:40:42.956Z,52.00
2019-05-28T01:41:42.894Z,56.00
2019-05-28T01:42:42.886Z,56.00
2019-05-28T01:43:42.879Z,56.00
2019-05-28T01:44:42.855Z,60.00
2019-05-28T01:45:42.852Z,56.00
2019-05-28T01:46:42.842Z,56.00
2019-05-28T01:47:42.833Z,56.00
2019-05-28T01:48:42.818Z,60.00
2019-05-28T01:49:42.848Z,60.00
2019-05-28T01:50:42.799Z,56.00
2019-05-28T01:51:42.812Z,56.00
2019-05-28T01:52:42.791Z,64.00
2019-05-28T01:53:42.787Z,68.00
2019-05-28T01:54:42.763Z,72.00
2019-05-28T01:55:42.757Z,72.00
2019-05-28T01:56:42.724Z,76.00
2019-05-28T01:57:42.742Z,76.00
2019-05-28T01:58:42.735Z,76.00
2019-05-28T01:59:42.691Z,76.00
2019-05-28T02:00:42.689Z,80.00
2019-05-28T02:01:42.690Z,80.00
2019-05-28T02:02:42.782Z,80.00
2019-05-28T02:03:42.671Z,84.00
2019-05-28T02:04:42.693Z,84.00
2019-05-28T02:05:42.639Z,92.00
2019-05-28T02:06:42.627Z,96.00
2019-05-28T02:07:42.616Z,92.00
2019-05-28T02:08:42.625Z,96.00
2019-05-28T02:09:53.519Z,100.00
2019-05-28T02:10:42.602Z,104.00
2019-05-28T02:11:42.573Z,108.00
2019-05-28T02:12:42.567Z,116.00
2019-05-28T02:13:42.556Z,116.00
2019-05-28T02:14:42.571Z,116.00
2019-05-28T02:15:42.555Z,116.00
2019-05-28T02:16:42.562Z,120.00
2019-05-28T02:17:42.528Z,124.00
2019-05-28T02:18:42.549Z,128.00
2019-05-28T02:19:42.521Z,132.00
2019-05-28T02:20:42.477Z,136.00
2019-05-28T02:21:42.476Z,136.00
2019-05-28T02:22:42.456Z,132.00
2019-05-28T02:23:42.482Z,136.00
2019-05-28T02:24:42.443Z,136.00
2019-05-28T02:25:42.423Z,132.00
2019-05-28T02:26:42.424Z,124.00
2019-05-28T02:27:42.417Z,108.00
2019-05-28T02:28:42.394Z,104.00
2019-05-28T02:29:42.385Z,120.00
2019-05-28T02:30:42.381Z,136.00
2019-05-28T02:31:42.362Z,148.00
2019-05-28T02:32:42.375Z,152.00
2019-05-28T02:33:42.350Z,148.00
2019-05-28T02:34:42.322Z,136.00
2019-05-28T02:35:42.329Z,132.00
2019-05-28T02:36:42.350Z,136.00
2019-05-28T02:37:42.315Z,144.00
2019-05-28T02:38:42.284Z,152.00
2019-05-28T02:39:42.295Z,160.00
2019-05-28T02:40:53.697Z,160.00
2019-05-28T02:41:42.258Z,160.00
2019-05-28T02:42:42.238Z,160.00
2019-05-28T02:43:42.236Z,156.00
2019-05-28T02:44:42.216Z,152.00
2019-05-28T02:45:42.216Z,140.00
2019-05-28T02:46:42.277Z,128.00
2019-05-28T02:47:42.210Z,132.00
2019-05-28T02:48:42.176Z,140.00
2019-05-28T02:49:42.166Z,152.00
2019-05-28T02:50:42.168Z,164.00
2019-05-28T02:51:42.199Z,172.00
2019-05-28T02:52:42.176Z,180.00
2019-05-28T02:53:42.137Z,192.00
2019-05-28T02:54:42.120Z,204.00
2019-05-28T02:55:42.105Z,212.00
2019-05-28T02:56:42.108Z,224.00
2019-05-28T02:57:42.140Z,240.00
2019-05-28T02:58:42.075Z,252.00
2019-05-28T02:59:42.115Z,264.00
2019-05-28T03:00:42.055Z,268.00
2019-05-28T03:01:44.664Z,272.00
2019-05-28T03:02:42.034Z,272.00
2019-05-28T03:03:42.035Z,264.00
2019-05-28T03:04:42.032Z,268.00
2019-05-28T03:05:42.025Z,276.00
2019-05-28T03:06:41.984Z,272.00
2019-05-28T03:07:42.014Z,264.00
2019-05-28T03:08:41.977Z,240.00
2019-05-28T03:09:41.964Z,224.00
2019-05-28T03:11:52.460Z,224.00
2019-05-28T03:12:41.988Z,244.00
2019-05-28T03:13:41.907Z,240.00
2019-05-28T03:14:41.917Z,224.00
2019-05-28T03:15:41.902Z,224.00
2019-05-28T03:16:41.876Z,220.00
2019-05-28T03:17:41.879Z,196.00
2019-05-28T03:18:41.866Z,184.00
2019-05-28T03:19:41.876Z,180.00
2019-05-28T03:20:41.847Z,184.00
2019-05-28T03:21:41.835Z,200.00
2019-05-28T03:22:41.826Z,208.00
2019-05-28T03:23:41.804Z,200.00
2019-05-28T03:24:41.821Z,184.00
2019-05-28T03:25:41.785Z,176.00
2019-05-28T03:26:41.775Z,192.00
2019-05-28T03:27:41.787Z,192.00
2019-05-28T03:28:41.759Z,184.00
2019-05-28T03:29:41.764Z,184.00
2019-05-28T03:30:41.782Z,184.00
2019-05-28T03:31:41.726Z,196.00
2019-05-28T03:32:41.856Z,192.00
2019-05-28T03:33:41.721Z,196.00
2019-05-28T03:34:42.355Z,208.00
2019-05-28T03:35:41.705Z,228.00
2019-05-28T03:36:41.681Z,232.00
2019-05-28T03:37:41.695Z,252.00
2019-05-28T03:38:41.685Z,280.00
2019-05-28T03:39:41.651Z,308.00
2019-05-28T03:40:41.669Z,320.00
2019-05-28T03:41:41.645Z,332.00
2019-05-28T03:42:53.171Z,364.00
2019-05-28T03:43:41.602Z,364.00
2019-05-28T03:44:41.584Z,352.00
2019-05-28T03:45:41.597Z,392.00
2019-05-28T03:46:41.597Z,492.00
2019-05-28T03:47:41.569Z,560.00
2019-05-28T03:48:41.561Z,564.00
2019-05-28T03:49:41.554Z,508.00
2019-05-28T03:50:41.527Z,456.00
2019-05-28T03:51:41.510Z,460.00
2019-05-28T03:52:41.582Z,464.00
2019-05-28T03:53:41.497Z,452.00
2019-05-28T03:54:41.491Z,424.00
2019-05-28T03:55:41.482Z,404.00
2019-05-28T03:56:41.461Z,416.00
2019-05-28T03:57:41.460Z,448.00
2019-05-28T03:58:41.450Z,512.00
2019-05-28T03:59:41.427Z,540.00
2019-05-28T04:00:41.423Z,580.00
2019-05-28T04:01:41.452Z,548.00
2019-05-28T04:02:41.460Z,508.00
2019-05-28T04:03:41.386Z,480.00
2019-05-28T04:04:41.410Z,468.00
2019-05-28T04:05:41.379Z,484.00
2019-05-28T04:06:41.406Z,500.00
2019-05-28T04:07:41.366Z,520.00
2019-05-28T04:08:41.361Z,484.00
2019-05-28T04:09:41.344Z,444.00
2019-05-28T04:10:41.315Z,456.00
2019-05-28T04:11:45.086Z,492.00
2019-05-28T04:12:41.319Z,536.00
2019-05-28T04:13:51.836Z,576.00
2019-05-28T04:14:41.275Z,596.00
2019-05-28T04:15:41.252Z,616.00
2019-05-28T04:16:41.241Z,612.00
2019-05-28T04:17:41.231Z,616.00
2019-05-28T04:18:41.221Z,600.00
2019-05-28T04:19:41.263Z,596.00
2019-05-28T04:20:41.200Z,576.00
2019-05-28T04:21:41.205Z,572.00
2019-05-28T04:22:41.191Z,588.00
2019-05-28T04:23:41.852Z,612.00
2019-05-28T04:24:41.172Z,676.00
2019-05-28T04:25:41.164Z,664.00
2019-05-28T04:26:41.163Z,632.00
2019-05-28T04:27:41.171Z,688.00
2019-05-28T04:28:41.127Z,716.00
2019-05-28T04:29:41.192Z,616.00
2019-05-28T04:30:41.103Z,592.00
2019-05-28T04:31:41.102Z,600.00
2019-05-28T04:32:41.569Z,620.00
2019-05-28T04:33:41.094Z,676.00
2019-05-28T04:34:41.089Z,780.00
2019-05-28T04:35:41.160Z,884.00
2019-05-28T04:36:41.071Z,892.00
2019-05-28T04:37:41.026Z,836.00
2019-05-28T04:38:41.040Z,800.00
2019-05-28T04:39:41.028Z,760.00
2019-05-28T04:40:41.019Z,668.00
2019-05-28T04:41:41.063Z,596.00
2019-05-28T04:42:41.001Z,600.00
2019-05-28T04:43:40.979Z,616.00
2019-05-28T04:44:52.338Z,644.00
2019-05-28T04:45:40.974Z,764.00
2019-05-28T04:46:40.932Z,852.00
2019-05-28T04:47:40.917Z,860.00
2019-05-28T04:48:40.925Z,852.00
2019-05-28T04:49:40.903Z,832.00
2019-05-28T04:50:40.886Z,860.00
2019-05-28T04:51:40.909Z,900.00
2019-05-28T04:52:40.864Z,912.00
2019-05-28T04:53:40.862Z,932.00
2019-05-28T04:54:40.846Z,904.00
2019-05-28T04:55:40.833Z,872.00
2019-05-28T04:56:40.892Z,852.00
2019-05-28T04:57:40.845Z,812.00
2019-05-28T04:58:40.823Z,796.00
2019-05-28T04:59:40.832Z,864.00
2019-05-28T05:00:40.801Z,884.00
2019-05-28T05:01:40.775Z,868.00
2019-05-28T05:02:57.740Z,916.00
2019-05-28T05:03:41.784Z,996.00
2019-05-28T05:04:40.748Z,1036.00
2019-05-28T05:05:40.751Z,1116.00
2019-05-28T05:06:40.757Z,1360.00
2019-05-28T05:07:40.721Z,1500.00
2019-05-28T05:08:40.750Z,1416.00
2019-05-28T05:09:40.681Z,1356.00
2019-05-28T05:10:40.724Z,1344.00
2019-05-28T05:11:40.680Z,1348.00
2019-05-28T05:12:40.672Z,1316.00
2019-05-28T05:13:40.661Z,1308.00
2019-05-28T05:14:40.680Z,1372.00
2019-05-28T05:15:50.721Z,1336.00
2019-05-28T05:16:40.653Z,1284.00
2019-05-28T05:17:40.619Z,1236.00
2019-05-28T05:18:40.600Z,1364.00
2019-05-28T05:19:40.603Z,1488.00
2019-05-28T05:20:40.610Z,1568.00
2019-05-28T05:21:40.591Z,1544.00
2019-05-28T05:22:40.568Z,1544.00
2019-05-28T05:23:40.558Z,1544.00
2019-05-28T05:24:40.544Z,1688.00
2019-05-28T05:25:40.549Z,1856.00
2019-05-28T05:26:40.516Z,1992.00
2019-05-28T05:27:40.527Z,1972.00
2019-05-28T05:28:40.540Z,1644.00
2019-05-28T05:29:40.479Z,1532.00
2019-05-28T05:30:40.658Z,1460.00
2019-05-28T05:31:40.456Z,1412.00
2019-05-28T05:32:41.160Z,1360.00
2019-05-28T05:33:40.446Z,1392.00
2019-05-28T05:34:40.444Z,1352.00
2019-05-28T05:35:40.499Z,1304.00
2019-05-28T05:36:41.498Z,1296.00
2019-05-28T05:37:40.402Z,1320.00
2019-05-28T05:38:40.407Z,1348.00
2019-05-28T05:39:40.385Z,1348.00
2019-05-28T05:40:40.380Z,1292.00
2019-05-28T05:41:40.391Z,1228.00
2019-05-28T05:42:40.352Z,1144.00
2019-05-28T05:43:40.345Z,1136.00
2019-05-28T05:44:40.351Z,1044.00
2019-05-28T05:45:40.355Z,904.00
2019-05-28T05:47:53.429Z,1076.00
2019-05-28T05:48:53.422Z,1124.00
2019-05-28T05:49:53.399Z,1136.00
2019-05-28T05:50:53.378Z,1072.00
2019-05-28T05:51:53.389Z,1108.00
2019-05-28T05:52:53.378Z,1064.00
2019-05-28T05:53:53.372Z,960.00
2019-05-28T05:54:53.360Z,968.00
2019-05-28T05:55:53.329Z,1056.00
2019-05-28T05:56:53.357Z,1012.00
2019-05-28T05:57:53.308Z,1056.00
2019-05-28T05:58:53.332Z,1056.00
2019-05-28T05:59:53.331Z,1148.00
2019-05-28T06:00:53.278Z,1292.00
2019-05-28T06:01:53.270Z,1332.00
2019-05-28T06:02:53.299Z,1396.00
2019-05-28T06:03:53.250Z,1528.00
2019-05-28T06:04:53.249Z,1652.00
2019-05-28T06:05:53.228Z,1656.00
2019-05-28T06:06:53.223Z,1572.00
2019-05-28T06:07:53.255Z,1588.00
2019-05-28T06:08:53.200Z,1444.00
2019-05-28T06:09:53.192Z,1320.00
2019-05-28T06:10:53.220Z,1052.00
2019-05-28T06:11:53.166Z,996.00
2019-05-28T06:12:53.199Z,1024.00
2019-05-28T06:13:53.146Z,1124.00
2019-05-28T06:14:53.150Z,1148.00
2019-05-28T06:15:53.117Z,1220.00
2019-05-28T06:16:53.107Z,1296.00
2019-05-28T06:18:01.276Z,1436.00
2019-05-28T06:18:53.125Z,1672.00
2019-05-28T06:19:53.072Z,1932.00
2019-05-28T06:21:07.653Z,2144.00
2019-05-28T06:21:54.076Z,2148.00
2019-05-28T06:22:53.125Z,2048.00
2019-05-28T06:23:53.046Z,1800.00
2019-05-28T06:24:53.036Z,1492.00
2019-05-28T06:25:53.046Z,1272.00
2019-05-28T06:26:53.015Z,1176.00
2019-05-28T06:27:53.011Z,1212.00
2019-05-28T06:28:53.006Z,1224.00
2019-05-28T06:29:52.976Z,1200.00
2019-05-28T06:30:52.962Z,1144.00
2019-05-28T06:31:52.954Z,1120.00
2019-05-28T06:32:52.935Z,1208.00
2019-05-28T06:33:56.791Z,1416.00
2019-05-28T06:34:52.911Z,1484.00
2019-05-28T06:35:52.911Z,1520.00
2019-05-28T06:36:52.911Z,1536.00
2019-05-28T06:37:52.901Z,1504.00
2019-05-28T06:38:52.921Z,1440.00
2019-05-28T06:39:52.938Z,1436.00
2019-05-28T06:40:52.859Z,1548.00
2019-05-28T06:41:52.954Z,1608.00
2019-05-28T06:42:52.904Z,1740.00
2019-05-28T06:43:52.858Z,1716.00
2019-05-28T06:44:52.874Z,1752.00
2019-05-28T06:45:52.934Z,1776.00
2019-05-28T06:46:52.803Z,1740.00
2019-05-28T06:47:52.796Z,1600.00
2019-05-28T06:49:02.625Z,1388.00
2019-05-28T06:49:52.765Z,1296.00
2019-05-28T06:50:52.816Z,1120.00
2019-05-28T06:51:52.796Z,1056.00
2019-05-28T06:52:52.781Z,1024.00
2019-05-28T06:53:52.859Z,988.00
2019-05-28T06:54:52.846Z,868.00
2019-05-28T06:55:52.685Z,896.00
2019-05-28T06:56:52.717Z,976.00
2019-05-28T06:57:52.740Z,1036.00
2019-05-28T06:58:52.862Z,1008.00
2019-05-28T06:59:52.664Z,1028.00
2019-05-28T07:00:52.689Z,1316.00
2019-05-28T07:01:52.685Z,1680.00
2019-05-28T07:02:52.647Z,1800.00
2019-05-28T07:03:52.611Z,1736.00
2019-05-28T07:04:52.623Z,1608.00
2019-05-28T07:06:06.200Z,1616.00
2019-05-28T07:06:53.600Z,1608.00
2019-05-28T07:07:52.594Z,1536.00
2019-05-28T07:08:52.574Z,1472.00
2019-05-28T07:09:52.564Z,1244.00
2019-05-28T07:10:57.485Z,1148.00
2019-05-28T07:11:53.533Z,1072.00
2019-05-28T07:12:52.591Z,960.00
2019-05-28T07:13:52.500Z,956.00
2019-05-28T07:14:52.533Z,876.00
2019-05-28T07:15:52.566Z,852.00
2019-05-28T07:16:53.825Z,872.00
2019-05-28T07:17:52.493Z,940.00
2019-05-28T07:18:52.473Z,1044.00
2019-05-28T07:20:02.395Z,1068.00
2019-05-28T07:20:52.426Z,1096.00
2019-05-28T07:21:52.414Z,1212.00
2019-05-28T07:22:52.416Z,1332.00
2019-05-28T07:23:52.447Z,1456.00
2019-05-28T07:24:52.392Z,1508.00
2019-05-28T07:25:52.405Z,1472.00
2019-05-28T07:26:52.378Z,1392.00
2019-05-28T07:28:09.745Z,1316.00
2019-05-28T07:28:53.493Z,1412.00
2019-05-28T07:29:52.346Z,1244.00
2019-05-28T07:30:52.346Z,1116.00
2019-05-28T07:31:52.371Z,992.00
2019-05-28T07:32:52.305Z,932.00
2019-05-28T07:33:52.316Z,884.00
2019-05-28T07:34:52.415Z,840.00
2019-05-28T07:35:52.290Z,828.00
2019-05-28T07:36:52.263Z,900.00
2019-05-28T07:37:52.253Z,988.00
2019-05-28T07:38:52.364Z,1088.00
2019-05-28T07:39:52.275Z,1280.00
2019-05-28T07:40:52.238Z,1496.00
2019-05-28T07:41:52.213Z,1856.00
2019-05-28T07:42:52.283Z,2212.00
2019-05-28T07:43:52.183Z,2212.00
2019-05-28T07:44:52.204Z,2120.00
2019-05-28T07:45:52.173Z,2040.00
2019-05-28T07:46:52.172Z,1752.00
2019-05-28T07:47:52.146Z,1720.00
2019-05-28T07:48:52.200Z,1672.00
2019-05-28T07:49:52.179Z,1624.00
2019-05-28T07:51:02.698Z,1664.00
2019-05-28T07:51:52.095Z,1740.00
2019-05-28T07:52:52.090Z,1740.00
2019-05-28T07:53:52.083Z,1820.00
2019-05-28T07:54:52.060Z,1956.00
2019-05-28T07:55:52.064Z,1852.00
2019-05-28T07:56:52.031Z,1912.00
2019-05-28T07:57:52.043Z,2052.00
2019-05-28T07:58:52.031Z,2000.00
2019-05-28T07:59:51.999Z,1888.00
2019-05-28T08:00:52.061Z,1772.00
2019-05-28T08:01:52.002Z,1684.00
2019-05-28T08:02:51.991Z,1776.00
2019-05-28T08:03:52.069Z,1792.00
2019-05-28T08:04:51.951Z,2012.00
2019-05-28T08:05:51.950Z,2376.00
2019-05-28T08:06:55.132Z,2348.00
2019-05-28T08:07:51.927Z,2476.00
2019-05-28T08:08:51.910Z,2484.00
2019-05-28T08:09:51.898Z,2232.00
2019-05-28T08:10:51.887Z,2052.00
2019-05-28T08:11:51.899Z,1976.00
2019-05-28T08:12:51.899Z,1952.00
2019-05-28T08:13:52.696Z,2048.00
2019-05-28T08:14:51.837Z,2092.00
2019-05-28T08:15:51.931Z,2172.00
2019-05-28T08:16:53.151Z,2208.00
2019-05-28T08:17:51.833Z,2356.00
2019-05-28T08:18:51.809Z,2400.00
2019-05-28T08:19:51.790Z,2544.00
2019-05-28T08:20:51.813Z,2616.00
2019-05-28T08:22:02.866Z,2652.00
2019-05-28T08:22:51.797Z,2772.00
2019-05-28T08:23:51.753Z,2920.00
2019-05-28T08:24:54.822Z,2904.00
2019-05-28T08:25:51.724Z,2920.00
2019-05-28T08:26:51.734Z,3172.00
2019-05-28T08:27:51.783Z,3276.00
2019-05-28T08:28:51.735Z,3440.00
2019-05-28T08:29:51.703Z,3576.00
2019-05-28T08:30:51.829Z,3544.00
2019-05-28T08:31:51.669Z,3584.00
2019-05-28T08:32:51.708Z,3608.00
2019-05-28T08:33:51.637Z,3280.00
2019-05-28T08:35:04.779Z,2964.00
2019-05-28T08:35:52.625Z,2680.00
2019-05-28T08:37:05.369Z,2408.00
2019-05-28T08:37:52.623Z,2188.00
2019-05-28T08:38:51.607Z,1996.00
2019-05-28T08:39:51.639Z,1684.00
2019-05-28T08:40:51.565Z,1420.00
2019-05-28T08:41:51.576Z,1260.00
2019-05-28T08:42:51.637Z,1144.00
2019-05-28T08:43:51.556Z,1072.00
2019-05-28T08:44:51.512Z,1036.00
2019-05-28T08:45:51.532Z,948.00
2019-05-28T08:46:51.517Z,892.00
2019-05-28T08:47:51.517Z,852.00
2019-05-28T08:48:51.533Z,844.00
2019-05-28T08:49:51.480Z,812.00
2019-05-28T08:50:51.515Z,804.00
2019-05-28T08:51:51.443Z,816.00
2019-05-28T08:53:03.302Z,836.00
2019-05-28T08:53:51.434Z,848.00
2019-05-28T08:54:51.446Z,836.00
2019-05-28T08:55:51.428Z,824.00
2019-05-28T08:56:51.467Z,860.00
2019-05-28T08:57:51.393Z,916.00
2019-05-28T08:58:51.372Z,1008.00
2019-05-28T08:59:51.381Z,1076.00
2019-05-28T09:00:51.383Z,1068.00
2019-05-28T09:01:51.351Z,1108.00
2019-05-28T09:02:51.336Z,1200.00
2019-05-28T09:03:51.321Z,1208.00
2019-05-28T09:04:51.339Z,1304.00
2019-05-28T09:05:51.323Z,1520.00
2019-05-28T09:06:51.296Z,1540.00
2019-05-28T09:07:51.299Z,1560.00
2019-05-28T09:08:51.285Z,1660.00
2019-05-28T09:09:51.259Z,1492.00
2019-05-28T09:10:51.256Z,1476.00
2019-05-28T09:11:51.271Z,1528.00
2019-05-28T09:12:51.252Z,1500.00
2019-05-28T09:13:51.217Z,1544.00
2019-05-28T09:14:56.145Z,1504.00
2019-05-28T09:15:52.242Z,1428.00
2019-05-28T09:16:51.198Z,1320.00
2019-05-28T09:17:51.208Z,1256.00
2019-05-28T09:18:51.171Z,1244.00
2019-05-28T09:19:51.161Z,1160.00
2019-05-28T09:20:51.364Z,1136.00
2019-05-28T09:21:51.143Z,1096.00
2019-05-28T09:22:51.674Z,1076.00
2019-05-28T09:24:01.356Z,1100.00
2019-05-28T09:24:51.086Z,1024.00
2019-05-28T09:25:51.086Z,988.00
2019-05-28T09:26:51.091Z,952.00
2019-05-28T09:27:51.089Z,940.00
2019-05-28T09:28:51.145Z,972.00
2019-05-28T09:29:51.058Z,972.00
2019-05-28T09:30:51.028Z,960.00
2019-05-28T09:31:51.033Z,976.00
2019-05-28T09:32:51.124Z,1032.00
2019-05-28T09:33:51.023Z,1148.00
2019-05-28T09:34:51.012Z,1220.00
2019-05-28T09:36:07.550Z,1296.00
2019-05-28T09:36:52.008Z,1268.00
2019-05-28T09:37:50.957Z,1260.00
2019-05-28T09:38:50.986Z,1260.00
2019-05-28T09:39:50.936Z,1368.00
2019-05-28T09:40:51.465Z,1464.00
2019-05-28T09:41:50.918Z,1536.00
2019-05-28T09:42:50.902Z,1696.00
2019-05-28T09:43:50.903Z,1844.00
2019-05-28T09:44:50.980Z,1976.00
2019-05-28T09:45:50.864Z,2160.00
2019-05-28T09:46:50.866Z,2268.00
2019-05-28T09:47:50.864Z,2124.00
2019-05-28T09:48:50.855Z,2072.00
2019-05-28T09:49:51.233Z,1912.00
2019-05-28T09:50:51.923Z,1904.00
2019-05-28T09:51:50.802Z,1900.00
2019-05-28T09:52:54.958Z,1836.00
2019-05-28T09:53:50.798Z,1736.00
2019-05-28T09:55:02.901Z,1576.00
2019-05-28T09:55:50.784Z,1420.00
2019-05-28T09:56:50.769Z,1368.00
2019-05-28T09:57:50.733Z,1340.00
2019-05-28T09:58:50.767Z,1468.00
2019-05-28T09:59:50.885Z,1740.00
2019-05-28T10:00:57.996Z,2020.00
2019-05-28T10:01:51.713Z,2156.00
2019-05-28T10:02:50.724Z,2228.00
2019-05-28T10:03:50.711Z,2076.00
2019-05-28T10:04:50.773Z,1828.00
2019-05-28T10:06:06.829Z,1664.00
2019-05-28T10:06:51.660Z,1744.00
2019-05-28T10:07:50.642Z,1624.00
2019-05-28T10:08:50.687Z,1656.00
2019-05-28T10:09:50.608Z,1524.00
2019-05-28T10:10:50.613Z,1484.00
2019-05-28T10:11:50.589Z,1464.00
2019-05-28T10:12:50.591Z,1436.00
2019-05-28T10:13:50.588Z,1416.00
2019-05-28T10:14:50.602Z,1428.00
2019-05-28T10:15:50.569Z,1432.00
2019-05-28T10:16:50.539Z,1504.00
2019-05-28T10:17:50.532Z,1496.00
2019-05-28T10:18:50.508Z,1568.00
2019-05-28T10:19:50.517Z,1668.00
2019-05-28T10:20:50.549Z,1760.00
2019-05-28T10:21:50.497Z,1724.00
2019-05-28T10:22:50.467Z,1660.00
2019-05-28T10:23:50.491Z,1580.00
2019-05-28T10:24:50.460Z,1572.00
2019-05-28T10:26:00.703Z,1628.00
2019-05-28T10:26:50.438Z,1848.00
2019-05-28T10:28:00.894Z,2016.00
2019-05-28T10:28:51.385Z,2056.00
2019-05-28T10:29:50.385Z,1992.00
2019-05-28T10:30:50.375Z,1996.00
2019-05-28T10:31:50.383Z,2032.00
2019-05-28T10:32:50.365Z,2160.00
2019-05-28T10:33:50.351Z,2196.00
2019-05-28T10:35:03.070Z,2252.00
2019-05-28T10:35:51.329Z,2344.00
2019-05-28T10:36:50.337Z,2516.00
2019-05-28T10:37:50.702Z,2660.00
2019-05-28T10:38:50.311Z,2728.00
2019-05-28T10:39:50.316Z,3036.00
2019-05-28T10:40:50.280Z,3388.00
2019-05-28T10:41:50.314Z,5492.00
2019-05-28T10:42:50.274Z,5540.00
2019-05-28T10:43:50.253Z,5640.00
2019-05-28T10:44:50.244Z,5348.00
2019-05-28T10:45:50.269Z,5072.00
2019-05-28T10:46:50.205Z,5036.00
2019-05-28T10:47:50.233Z,5176.00
2019-05-28T10:48:50.195Z,5184.00
2019-05-28T10:49:51.192Z,5288.00
2019-05-28T10:50:50.176Z,5332.00
2019-05-28T10:51:50.166Z,5324.00
2019-05-28T10:52:50.303Z,5416.00
2019-05-28T10:53:50.193Z,5512.00
2019-05-28T10:54:50.149Z,5592.00
2019-05-28T10:55:50.133Z,5744.00
2019-05-28T10:57:01.403Z,5936.00
2019-05-28T10:57:50.089Z,5340.00
2019-05-28T10:58:50.089Z,6124.00
2019-05-28T10:59:50.073Z,6016.00
2019-05-28T11:00:50.072Z,4184.00
2019-05-28T11:01:50.051Z,4268.00
2019-05-28T11:02:50.036Z,4120.00
2019-05-28T11:03:50.044Z,4964.00
2019-05-28T11:04:50.039Z,5616.00
2019-05-28T11:05:50.003Z,4872.00
2019-05-28T11:06:52.113Z,5120.00
2019-05-28T11:07:49.984Z,3644.00
2019-05-28T11:08:50.001Z,3544.00
2019-05-28T11:09:49.988Z,3460.00
2019-05-28T11:10:49.949Z,3352.00
2019-05-28T11:11:49.940Z,3304.00
2019-05-28T11:12:49.944Z,3184.00
2019-05-28T11:13:53.139Z,2940.00
2019-05-28T11:14:49.947Z,2964.00
2019-05-28T11:15:49.914Z,3144.00
2019-05-28T11:16:49.931Z,3384.00
2019-05-28T11:17:49.899Z,3596.00
2019-05-28T11:18:49.868Z,4024.00
2019-05-28T11:19:49.861Z,4908.00
2019-05-28T11:20:49.945Z,7032.00
2019-05-28T11:21:49.842Z,5996.00
2019-05-28T11:22:49.824Z,6292.00
2019-05-28T11:23:49.815Z,5340.00
2019-05-28T11:24:49.794Z,4432.00
2019-05-28T11:25:49.825Z,4992.00
2019-05-28T11:26:49.791Z,4612.00
2019-05-28T11:28:00.211Z,4556.00
2019-05-28T11:28:49.765Z,4548.00
2019-05-28T11:29:49.764Z,4624.00
2019-05-28T11:30:49.733Z,4740.00
2019-05-28T11:31:49.761Z,4852.00
2019-05-28T11:32:49.733Z,4656.00
2019-05-28T11:33:49.754Z,4852.00
2019-05-28T11:34:49.733Z,5408.00
2019-05-28T11:35:49.722Z,5092.00
2019-05-28T11:36:49.674Z,4652.00
2019-05-28T11:37:49.778Z,4476.00
2019-05-28T11:38:49.652Z,4200.00
2019-05-28T11:39:49.644Z,4052.00
2019-05-28T11:40:49.672Z,3916.00
2019-05-28T11:41:49.633Z,3768.00
2019-05-28T11:42:49.696Z,3620.00
2019-05-28T11:43:49.642Z,3592.00
2019-05-28T11:44:49.595Z,3560.00
2019-05-28T11:45:49.578Z,3436.00
2019-05-28T11:46:49.569Z,3340.00
2019-05-28T11:47:50.847Z,3200.00
2019-05-28T11:48:49.581Z,3100.00
2019-05-28T11:49:49.540Z,2952.00
2019-05-28T11:50:49.544Z,2880.00
2019-05-28T11:51:49.523Z,2832.00
2019-05-28T11:52:49.509Z,2924.00
2019-05-28T11:53:49.527Z,6300.00
2019-05-28T11:54:49.505Z,5996.00
2019-05-28T11:55:49.480Z,5868.00
2019-05-28T11:56:49.457Z,5680.00
2019-05-28T11:57:49.447Z,5540.00
2019-05-28T11:59:00.280Z,5428.00
2019-05-28T11:59:49.495Z,5472.00
2019-05-28T12:00:49.443Z,5600.00
2019-05-28T12:01:49.412Z,5780.00
2019-05-28T12:02:49.407Z,5696.00
2019-05-28T12:03:49.402Z,5608.00
2019-05-28T12:04:49.434Z,4116.00
2019-05-28T12:05:49.375Z,3200.00
2019-05-28T12:06:49.369Z,3236.00
2019-05-28T12:07:51.657Z,3444.00
2019-05-28T12:08:49.341Z,3112.00
2019-05-28T12:09:49.321Z,2804.00
2019-05-28T12:10:49.364Z,2836.00
2019-05-28T12:11:49.308Z,4068.00
2019-05-28T12:12:49.290Z,3480.00
2019-05-28T12:13:49.281Z,3176.00
2019-05-28T12:14:49.270Z,3012.00
2019-05-28T12:15:49.248Z,2956.00
2019-05-28T12:16:49.283Z,3212.00
2019-05-28T12:17:49.261Z,3412.00
2019-05-28T12:18:49.227Z,3576.00
2019-05-28T12:19:49.230Z,4580.00
2019-05-28T12:20:49.226Z,3988.00
2019-05-28T12:21:49.225Z,6720.00
2019-05-28T12:22:49.196Z,3764.00